sensor_id;sensor_type;location;lat;lon;timestamp;P1;durP1;ratioP1;P2;durP2;ratioP2
10277;SDS011;5184;51.376;7.148;2024-02-15T00:00:23;12.07;;;8.80;;
10277;SDS011;5184;51.376;7.148;2024-02-15T00:02:50;14.43;;;9.10;;
10277;SDS011;5184;51.376;7.148;2024-02-15T00:05:17;11.30;;;8.87;;
10277;SDS011;5184;51.376;7.148;2024-02-15T00:07:44;11.03;;;9.03;;
10277;SDS011;5184;51.376;7.148;2024-02-15T00:10:12;11.87;;;8.70;;
10277;SDS011;5184;51.376;7.148;2024-02-15T00:12:38;12.33;;;8.77;;
10277;SDS011;5184;51.376;7.148;2024-02-15T00:15:05;12.47;;;8.87;;
10277;SDS011;5184;51.376;7.148;2024-02-15T00:17:32;11.20;;;9.77;;
10277;SDS011;5184;51.376;7.148;2024-02-15T00:19:58;11.17;;;8.97;;
10277;SDS011;5184;51.376;7.148;2024-02-15T00:22:25;12.30;;;9.67;;
10277;SDS011;5184;51.376;7.148;2024-02-15T00:24:52;12.33;;;9.53;;
10277;SDS011;5184;51.376;7.148;2024-02-15T00:27:20;11.83;;;9.80;;
10277;SDS011;5184;51.376;7.148;2024-02-15T00:29:46;13.03;;;9.87;;
10277;SDS011;5184;51.376;7.148;2024-02-15T00:32:13;12.40;;;10.37;;
10277;SDS011;5184;51.376;7.148;2024-02-15T00:34:39;11.97;;;9.53;;
10277;SDS011;5184;51.376;7.148;2024-02-15T00:37:06;14.17;;;10.73;;
10277;SDS011;5184;51.376;7.148;2024-02-15T00:39:33;14.27;;;10.67;;
10277;SDS011;5184;51.376;7.148;2024-02-15T00:42:00;13.83;;;9.83;;
10277;SDS011;5184;51.376;7.148;2024-02-15T00:44:27;15.47;;;11.63;;
10277;SDS011;5184;51.376;7.148;2024-02-15T00:46:53;15.10;;;11.53;;
10277;SDS011;5184;51.376;7.148;2024-02-15T00:49:21;12.57;;;11.07;;
10277;SDS011;5184;51.376;7.148;2024-02-15T00:51:48;17.30;;;12.60;;
10277;SDS011;5184;51.376;7.148;2024-02-15T00:54:15;17.53;;;12.57;;
10277;SDS011;5184;51.376;7.148;2024-02-15T00:56:41;17.33;;;12.70;;
10277;SDS011;5184;51.376;7.148;2024-02-15T00:59:08;18.70;;;13.30;;
10277;SDS011;5184;51.376;7.148;2024-02-15T01:01:35;15.47;;;12.00;;
10277;SDS011;5184;51.376;7.148;2024-02-15T01:04:03;16.67;;;11.37;;
10277;SDS011;5184;51.376;7.148;2024-02-15T01:06:29;15.57;;;12.70;;
10277;SDS011;5184;51.376;7.148;2024-02-15T01:08:56;17.30;;;11.90;;
10277;SDS011;5184;51.376;7.148;2024-02-15T01:11:22;20.00;;;12.53;;
10277;SDS011;5184;51.376;7.148;2024-02-15T01:13:49;19.00;;;12.70;;
10277;SDS011;5184;51.376;7.148;2024-02-15T01:16:16;20.73;;;12.90;;
10277;SDS011;5184;51.376;7.148;2024-02-15T01:18:42;22.23;;;13.60;;
10277;SDS011;5184;51.376;7.148;2024-02-15T01:21:09;18.87;;;14.13;;
10277;SDS011;5184;51.376;7.148;2024-02-15T01:23:35;18.43;;;13.70;;
10277;SDS011;5184;51.376;7.148;2024-02-15T01:26:02;21.03;;;14.80;;
10277;SDS011;5184;51.376;7.148;2024-02-15T01:28:29;22.37;;;16.13;;
10277;SDS011;5184;51.376;7.148;2024-02-15T01:30:55;19.37;;;15.60;;
10277;SDS011;5184;51.376;7.148;2024-02-15T01:33:23;20.37;;;13.70;;
10277;SDS011;5184;51.376;7.148;2024-02-15T01:35:50;21.57;;;14.63;;
10277;SDS011;5184;51.376;7.148;2024-02-15T01:38:17;20.73;;;14.53;;
10277;SDS011;5184;51.376;7.148;2024-02-15T01:40:46;22.17;;;14.00;;
10277;SDS011;5184;51.376;7.148;2024-02-15T01:43:11;19.87;;;13.57;;
10277;SDS011;5184;51.376;7.148;2024-02-15T01:45:38;20.47;;;13.10;;
10277;SDS011;5184;51.376;7.148;2024-02-15T01:48:05;16.70;;;12.93;;
10277;SDS011;5184;51.376;7.148;2024-02-15T01:50:32;19.77;;;12.73;;
10277;SDS011;5184;51.376;7.148;2024-02-15T01:53:00;17.13;;;12.10;;
10277;SDS011;5184;51.376;7.148;2024-02-15T01:55:26;19.70;;;11.97;;
10277;SDS011;5184;51.376;7.148;2024-02-15T01:57:53;19.80;;;11.60;;
10277;SDS011;5184;51.376;7.148;2024-02-15T02:00:20;20.03;;;12.03;;
10277;SDS011;5184;51.376;7.148;2024-02-15T02:02:47;18.03;;;10.57;;
10277;SDS011;5184;51.376;7.148;2024-02-15T02:05:14;12.87;;;10.47;;
10277;SDS011;5184;51.376;7.148;2024-02-15T02:07:40;15.47;;;9.30;;
10277;SDS011;5184;51.376;7.148;2024-02-15T02:10:07;15.60;;;9.07;;
10277;SDS011;5184;51.376;7.148;2024-02-15T02:12:34;11.93;;;8.80;;
10277;SDS011;5184;51.376;7.148;2024-02-15T02:15:01;14.60;;;9.10;;
10277;SDS011;5184;51.376;7.148;2024-02-15T02:17:27;14.17;;;9.20;;
10277;SDS011;5184;51.376;7.148;2024-02-15T02:19:55;13.50;;;9.03;;
10277;SDS011;5184;51.376;7.148;2024-02-15T02:22:22;12.03;;;8.10;;
10277;SDS011;5184;51.376;7.148;2024-02-15T02:27:21;13.83;;;8.80;;
10277;SDS011;5184;51.376;7.148;2024-02-15T02:29:48;14.27;;;8.07;;
10277;SDS011;5184;51.376;7.148;2024-02-15T02:32:14;13.73;;;8.10;;
10277;SDS011;5184;51.376;7.148;2024-02-15T02:34:42;14.83;;;8.73;;
10277;SDS011;5184;51.376;7.148;2024-02-15T02:37:09;12.57;;;8.20;;
10277;SDS011;5184;51.376;7.148;2024-02-15T02:39:36;11.53;;;7.83;;
10277;SDS011;5184;51.376;7.148;2024-02-15T02:42:02;13.07;;;8.33;;
10277;SDS011;5184;51.376;7.148;2024-02-15T02:44:29;15.33;;;7.97;;
10277;SDS011;5184;51.376;7.148;2024-02-15T02:46:56;14.60;;;8.50;;
10277;SDS011;5184;51.376;7.148;2024-02-15T02:49:22;12.73;;;7.53;;
10277;SDS011;5184;51.376;7.148;2024-02-15T02:51:49;11.77;;;7.07;;
10277;SDS011;5184;51.376;7.148;2024-02-15T02:54:16;11.80;;;6.97;;
10277;SDS011;5184;51.376;7.148;2024-02-15T02:56:43;11.10;;;8.07;;
10277;SDS011;5184;51.376;7.148;2024-02-15T02:59:11;16.40;;;8.33;;
10277;SDS011;5184;51.376;7.148;2024-02-15T03:01:37;11.53;;;7.67;;
10277;SDS011;5184;51.376;7.148;2024-02-15T03:04:04;14.53;;;8.30;;
10277;SDS011;5184;51.376;7.148;2024-02-15T03:06:31;13.73;;;8.10;;
10277;SDS011;5184;51.376;7.148;2024-02-15T03:08:58;13.03;;;8.27;;
10277;SDS011;5184;51.376;7.148;2024-02-15T03:11:25;13.77;;;7.57;;
10277;SDS011;5184;51.376;7.148;2024-02-15T03:13:52;16.43;;;9.03;;
10277;SDS011;5184;51.376;7.148;2024-02-15T03:16:21;11.60;;;8.73;;
10277;SDS011;5184;51.376;7.148;2024-02-15T03:18:45;15.77;;;8.27;;
10277;SDS011;5184;51.376;7.148;2024-02-15T03:21:12;13.33;;;7.90;;
10277;SDS011;5184;51.376;7.148;2024-02-15T03:23:39;12.93;;;7.87;;
10277;SDS011;5184;51.376;7.148;2024-02-15T03:26:07;10.23;;;6.97;;
10277;SDS011;5184;51.376;7.148;2024-02-15T03:28:32;15.53;;;9.23;;
10277;SDS011;5184;51.376;7.148;2024-02-15T03:30:59;11.10;;;7.73;;
10277;SDS011;5184;51.376;7.148;2024-02-15T03:33:26;11.83;;;8.17;;
10277;SDS011;5184;51.376;7.148;2024-02-15T03:35:53;11.77;;;9.00;;
10277;SDS011;5184;51.376;7.148;2024-02-15T03:38:20;17.57;;;9.80;;
10277;SDS011;5184;51.376;7.148;2024-02-15T03:40:47;17.37;;;7.53;;
10277;SDS011;5184;51.376;7.148;2024-02-15T03:43:13;11.07;;;7.73;;
10277;SDS011;5184;51.376;7.148;2024-02-15T03:45:40;12.73;;;7.63;;
10277;SDS011;5184;51.376;7.148;2024-02-15T03:48:07;10.50;;;6.80;;
10277;SDS011;5184;51.376;7.148;2024-02-15T03:50:35;10.70;;;7.43;;
10277;SDS011;5184;51.376;7.148;2024-02-15T03:53:01;10.80;;;6.70;;
10277;SDS011;5184;51.376;7.148;2024-02-15T03:55:28;11.17;;;7.00;;
10277;SDS011;5184;51.376;7.148;2024-02-15T03:57:55;11.73;;;6.20;;
10277;SDS011;5184;51.376;7.148;2024-02-15T04:00:21;10.53;;;6.13;;
10277;SDS011;5184;51.376;7.148;2024-02-15T04:02:49;11.47;;;6.30;;
10277;SDS011;5184;51.376;7.148;2024-02-15T04:05:15;9.17;;;5.93;;
10277;SDS011;5184;51.376;7.148;2024-02-15T04:07:42;8.20;;;5.43;;
10277;SDS011;5184;51.376;7.148;2024-02-15T04:10:08;12.47;;;5.37;;
10277;SDS011;5184;51.376;7.148;2024-02-15T04:12:35;8.97;;;5.37;;
10277;SDS011;5184;51.376;7.148;2024-02-15T04:15:03;6.43;;;5.03;;
10277;SDS011;5184;51.376;7.148;2024-02-15T04:17:32;8.00;;;5.13;;
10277;SDS011;5184;51.376;7.148;2024-02-15T04:19:59;6.53;;;4.63;;
10277;SDS011;5184;51.376;7.148;2024-02-15T04:22:26;10.00;;;4.70;;
10277;SDS011;5184;51.376;7.148;2024-02-15T04:24:53;6.00;;;3.70;;
10277;SDS011;5184;51.376;7.148;2024-02-15T04:27:20;7.03;;;3.93;;
10277;SDS011;5184;51.376;7.148;2024-02-15T04:29:46;8.17;;;4.83;;
10277;SDS011;5184;51.376;7.148;2024-02-15T04:32:13;7.27;;;3.73;;
10277;SDS011;5184;51.376;7.148;2024-02-15T04:34:39;9.93;;;5.27;;
10277;SDS011;5184;51.376;7.148;2024-02-15T04:37:07;6.87;;;4.23;;
10277;SDS011;5184;51.376;7.148;2024-02-15T04:39:34;6.93;;;4.50;;
10277;SDS011;5184;51.376;7.148;2024-02-15T04:42:02;5.40;;;4.53;;
10277;SDS011;5184;51.376;7.148;2024-02-15T04:44:28;7.80;;;4.83;;
10277;SDS011;5184;51.376;7.148;2024-02-15T04:46:55;8.30;;;4.73;;
10277;SDS011;5184;51.376;7.148;2024-02-15T04:49:21;5.77;;;4.40;;
10277;SDS011;5184;51.376;7.148;2024-02-15T04:51:48;5.77;;;4.33;;
10277;SDS011;5184;51.376;7.148;2024-02-15T04:54:15;8.23;;;4.33;;
10277;SDS011;5184;51.376;7.148;2024-02-15T04:56:43;6.57;;;3.90;;
10277;SDS011;5184;51.376;7.148;2024-02-15T04:59:10;7.40;;;3.77;;
10277;SDS011;5184;51.376;7.148;2024-02-15T05:01:38;7.77;;;3.60;;
10277;SDS011;5184;51.376;7.148;2024-02-15T05:04:05;4.83;;;3.87;;
10277;SDS011;5184;51.376;7.148;2024-02-15T05:06:33;6.23;;;3.87;;
10277;SDS011;5184;51.376;7.148;2024-02-15T05:09:00;4.93;;;3.67;;
10277;SDS011;5184;51.376;7.148;2024-02-15T05:11:26;5.77;;;3.73;;
10277;SDS011;5184;51.376;7.148;2024-02-15T05:13:53;4.97;;;3.57;;
10277;SDS011;5184;51.376;7.148;2024-02-15T05:16:20;4.57;;;3.23;;
10277;SDS011;5184;51.376;7.148;2024-02-15T05:18:47;5.27;;;3.20;;
10277;SDS011;5184;51.376;7.148;2024-02-15T05:21:14;8.17;;;3.33;;
10277;SDS011;5184;51.376;7.148;2024-02-15T05:23:42;6.60;;;3.53;;
10277;SDS011;5184;51.376;7.148;2024-02-15T05:26:08;5.37;;;3.43;;
10277;SDS011;5184;51.376;7.148;2024-02-15T05:28:35;6.37;;;3.27;;
10277;SDS011;5184;51.376;7.148;2024-02-15T05:31:08;4.97;;;3.47;;
10277;SDS011;5184;51.376;7.148;2024-02-15T05:33:36;6.60;;;3.77;;
10277;SDS011;5184;51.376;7.148;2024-02-15T05:36:03;9.17;;;4.17;;
10277;SDS011;5184;51.376;7.148;2024-02-15T05:38:29;4.03;;;3.00;;
10277;SDS011;5184;51.376;7.148;2024-02-15T05:40:56;3.93;;;2.80;;
10277;SDS011;5184;51.376;7.148;2024-02-15T05:43:23;4.43;;;3.00;;
10277;SDS011;5184;51.376;7.148;2024-02-15T05:45:51;4.33;;;2.83;;
10277;SDS011;5184;51.376;7.148;2024-02-15T05:48:18;5.63;;;3.33;;
10277;SDS011;5184;51.376;7.148;2024-02-15T05:50:45;6.43;;;3.30;;
10277;SDS011;5184;51.376;7.148;2024-02-15T05:53:11;6.13;;;3.00;;
10277;SDS011;5184;51.376;7.148;2024-02-15T05:55:38;5.30;;;3.00;;
10277;SDS011;5184;51.376;7.148;2024-02-15T05:58:05;4.97;;;3.00;;
10277;SDS011;5184;51.376;7.148;2024-02-15T06:00:31;5.83;;;3.47;;
10277;SDS011;5184;51.376;7.148;2024-02-15T06:02:58;4.23;;;3.00;;
10277;SDS011;5184;51.376;7.148;2024-02-15T06:05:26;5.73;;;3.00;;
10277;SDS011;5184;51.376;7.148;2024-02-15T06:07:52;4.13;;;2.90;;
10277;SDS011;5184;51.376;7.148;2024-02-15T06:10:19;3.77;;;2.77;;
10277;SDS011;5184;51.376;7.148;2024-02-15T06:12:46;5.63;;;3.10;;
10277;SDS011;5184;51.376;7.148;2024-02-15T06:15:12;4.53;;;2.70;;
10277;SDS011;5184;51.376;7.148;2024-02-15T06:17:41;6.30;;;3.10;;
10277;SDS011;5184;51.376;7.148;2024-02-15T06:20:07;8.30;;;3.10;;
10277;SDS011;5184;51.376;7.148;2024-02-15T06:22:35;3.60;;;2.70;;
10277;SDS011;5184;51.376;7.148;2024-02-15T06:25:02;5.00;;;3.20;;
10277;SDS011;5184;51.376;7.148;2024-02-15T06:27:30;3.27;;;2.97;;
10277;SDS011;5184;51.376;7.148;2024-02-15T06:29:57;4.77;;;3.50;;
10277;SDS011;5184;51.376;7.148;2024-02-15T06:32:29;7.53;;;3.57;;
10277;SDS011;5184;51.376;7.148;2024-02-15T06:35:02;6.63;;;3.30;;
10277;SDS011;5184;51.376;7.148;2024-02-15T06:37:35;5.70;;;3.17;;
10277;SDS011;5184;51.376;7.148;2024-02-15T06:40:07;6.10;;;2.87;;
10277;SDS011;5184;51.376;7.148;2024-02-15T06:42:34;3.83;;;3.40;;
10277;SDS011;5184;51.376;7.148;2024-02-15T06:45:01;6.20;;;3.53;;
10277;SDS011;5184;51.376;7.148;2024-02-15T06:47:28;5.43;;;3.43;;
10277;SDS011;5184;51.376;7.148;2024-02-15T06:49:55;4.57;;;3.30;;
10277;SDS011;5184;51.376;7.148;2024-02-15T06:52:23;3.67;;;3.07;;
10277;SDS011;5184;51.376;7.148;2024-02-15T06:54:49;5.73;;;2.90;;
10277;SDS011;5184;51.376;7.148;2024-02-15T06:57:16;5.80;;;3.23;;
10277;SDS011;5184;51.376;7.148;2024-02-15T06:59:46;6.77;;;2.70;;
10277;SDS011;5184;51.376;7.148;2024-02-15T07:02:11;7.10;;;3.20;;
10277;SDS011;5184;51.376;7.148;2024-02-15T07:04:38;7.07;;;3.00;;
10277;SDS011;5184;51.376;7.148;2024-02-15T07:07:05;5.67;;;3.10;;
10277;SDS011;5184;51.376;7.148;2024-02-15T07:09:31;4.67;;;3.00;;
10277;SDS011;5184;51.376;7.148;2024-02-15T07:11:58;13.90;;;3.57;;
10277;SDS011;5184;51.376;7.148;2024-02-15T07:14:24;4.40;;;3.10;;
10277;SDS011;5184;51.376;7.148;2024-02-15T07:16:51;5.53;;;3.00;;
10277;SDS011;5184;51.376;7.148;2024-02-15T07:19:18;7.67;;;2.50;;
10277;SDS011;5184;51.376;7.148;2024-02-15T07:21:46;6.03;;;2.77;;
10277;SDS011;5184;51.376;7.148;2024-02-15T07:24:12;4.13;;;2.90;;
10277;SDS011;5184;51.376;7.148;2024-02-15T07:26:39;3.10;;;2.60;;
10277;SDS011;5184;51.376;7.148;2024-02-15T07:29:06;6.63;;;3.20;;
10277;SDS011;5184;51.376;7.148;2024-02-15T07:31:32;5.13;;;2.70;;
10277;SDS011;5184;51.376;7.148;2024-02-15T07:33:59;4.93;;;2.83;;
10277;SDS011;5184;51.376;7.148;2024-02-15T07:36:26;4.17;;;2.90;;
10277;SDS011;5184;51.376;7.148;2024-02-15T07:38:54;4.33;;;2.90;;
10277;SDS011;5184;51.376;7.148;2024-02-15T07:41:20;3.77;;;2.57;;
10277;SDS011;5184;51.376;7.148;2024-02-15T07:43:47;4.47;;;2.73;;
10277;SDS011;5184;51.376;7.148;2024-02-15T07:46:13;5.23;;;3.03;;
10277;SDS011;5184;51.376;7.148;2024-02-15T07:48:40;5.40;;;3.10;;
10277;SDS011;5184;51.376;7.148;2024-02-15T07:51:06;4.47;;;2.93;;
10277;SDS011;5184;51.376;7.148;2024-02-15T07:53:34;5.77;;;3.00;;
10277;SDS011;5184;51.376;7.148;2024-02-15T07:56:01;3.90;;;2.47;;
10277;SDS011;5184;51.376;7.148;2024-02-15T07:58:28;6.37;;;2.70;;
10277;SDS011;5184;51.376;7.148;2024-02-15T08:00:54;5.00;;;2.40;;
10277;SDS011;5184;51.376;7.148;2024-02-15T08:03:21;4.40;;;2.50;;
10277;SDS011;5184;51.376;7.148;2024-02-15T08:05:48;6.50;;;2.50;;
10277;SDS011;5184;51.376;7.148;2024-02-15T08:08:14;5.03;;;2.70;;
10277;SDS011;5184;51.376;7.148;2024-02-15T08:10:42;3.93;;;2.50;;
10277;SDS011;5184;51.376;7.148;2024-02-15T08:13:08;7.50;;;2.77;;
10277;SDS011;5184;51.376;7.148;2024-02-15T08:15:35;7.27;;;2.70;;
10277;SDS011;5184;51.376;7.148;2024-02-15T08:18:01;4.03;;;2.40;;
10277;SDS011;5184;51.376;7.148;2024-02-15T08:20:28;5.10;;;3.20;;
10277;SDS011;5184;51.376;7.148;2024-02-15T08:22:55;8.47;;;3.10;;
10277;SDS011;5184;51.376;7.148;2024-02-15T08:25:21;4.43;;;2.60;;
10277;SDS011;5184;51.376;7.148;2024-02-15T08:27:48;7.43;;;2.63;;
10277;SDS011;5184;51.376;7.148;2024-02-15T08:30:16;5.00;;;2.23;;
10277;SDS011;5184;51.376;7.148;2024-02-15T08:32:43;4.33;;;2.33;;
10277;SDS011;5184;51.376;7.148;2024-02-15T08:35:11;7.00;;;2.00;;
10277;SDS011;5184;51.376;7.148;2024-02-15T08:37:39;4.20;;;2.37;;
10277;SDS011;5184;51.376;7.148;2024-02-15T08:40:06;5.63;;;2.10;;
10277;SDS011;5184;51.376;7.148;2024-02-15T08:42:33;7.03;;;2.27;;
10277;SDS011;5184;51.376;7.148;2024-02-15T08:44:59;6.00;;;2.40;;
10277;SDS011;5184;51.376;7.148;2024-02-15T08:47:26;4.20;;;1.90;;
10277;SDS011;5184;51.376;7.148;2024-02-15T08:49:53;3.93;;;2.27;;
10277;SDS011;5184;51.376;7.148;2024-02-15T08:52:19;5.63;;;2.53;;
10277;SDS011;5184;51.376;7.148;2024-02-15T08:54:46;3.07;;;2.00;;
10277;SDS011;5184;51.376;7.148;2024-02-15T08:57:12;3.77;;;2.33;;
10277;SDS011;5184;51.376;7.148;2024-02-15T08:59:39;4.60;;;1.90;;
10277;SDS011;5184;51.376;7.148;2024-02-15T09:02:07;3.53;;;2.30;;
10277;SDS011;5184;51.376;7.148;2024-02-15T09:04:33;4.60;;;2.10;;
10277;SDS011;5184;51.376;7.148;2024-02-15T09:07:00;4.20;;;2.40;;
10277;SDS011;5184;51.376;7.148;2024-02-15T09:09:27;4.33;;;2.00;;
10277;SDS011;5184;51.376;7.148;2024-02-15T09:11:54;4.33;;;2.40;;
10277;SDS011;5184;51.376;7.148;2024-02-15T09:14:21;4.30;;;2.07;;
10277;SDS011;5184;51.376;7.148;2024-02-15T09:16:47;5.23;;;2.13;;
10277;SDS011;5184;51.376;7.148;2024-02-15T09:19:14;2.60;;;2.20;;
10277;SDS011;5184;51.376;7.148;2024-02-15T09:21:40;4.13;;;2.10;;
10277;SDS011;5184;51.376;7.148;2024-02-15T09:24:07;2.13;;;1.90;;
10277;SDS011;5184;51.376;7.148;2024-02-15T09:26:34;3.10;;;2.03;;
10277;SDS011;5184;51.376;7.148;2024-02-15T09:29:01;5.67;;;2.47;;
10277;SDS011;5184;51.376;7.148;2024-02-15T09:31:28;3.33;;;2.17;;
10277;SDS011;5184;51.376;7.148;2024-02-15T09:33:54;4.43;;;1.80;;
10277;SDS011;5184;51.376;7.148;2024-02-15T09:36:21;4.40;;;1.83;;
10277;SDS011;5184;51.376;7.148;2024-02-15T09:38:47;2.93;;;1.80;;
10277;SDS011;5184;51.376;7.148;2024-02-15T09:41:15;3.13;;;1.93;;
10277;SDS011;5184;51.376;7.148;2024-02-15T09:43:42;4.13;;;2.17;;
10277;SDS011;5184;51.376;7.148;2024-02-15T09:46:09;3.87;;;1.80;;
10277;SDS011;5184;51.376;7.148;2024-02-15T09:48:35;3.90;;;1.77;;
10277;SDS011;5184;51.376;7.148;2024-02-15T09:51:02;4.63;;;1.90;;
10277;SDS011;5184;51.376;7.148;2024-02-15T09:53:29;3.37;;;1.90;;
10277;SDS011;5184;51.376;7.148;2024-02-15T09:55:55;2.43;;;1.70;;
10277;SDS011;5184;51.376;7.148;2024-02-15T09:58:22;5.13;;;2.63;;
10277;SDS011;5184;51.376;7.148;2024-02-15T10:00:49;2.43;;;1.60;;
10277;SDS011;5184;51.376;7.148;2024-02-15T10:03:18;4.17;;;1.90;;
10277;SDS011;5184;51.376;7.148;2024-02-15T10:05:43;6.97;;;1.90;;
10277;SDS011;5184;51.376;7.148;2024-02-15T10:08:10;3.17;;;1.67;;
10277;SDS011;5184;51.376;7.148;2024-02-15T10:10:37;6.47;;;1.83;;
10277;SDS011;5184;51.376;7.148;2024-02-15T10:13:04;2.93;;;1.67;;
10277;SDS011;5184;51.376;7.148;2024-02-15T10:15:33;3.30;;;1.67;;
10277;SDS011;5184;51.376;7.148;2024-02-15T10:18:00;3.80;;;1.53;;
10277;SDS011;5184;51.376;7.148;2024-02-15T10:20:27;2.57;;;1.80;;
10277;SDS011;5184;51.376;7.148;2024-02-15T10:23:26;3.07;;;1.70;;
10277;SDS011;5184;51.376;7.148;2024-02-15T10:25:37;5.47;;;1.80;;
10277;SDS011;5184;51.376;7.148;2024-02-15T10:28:06;1.73;;;1.40;;
10277;SDS011;5184;51.376;7.148;2024-02-15T10:30:33;4.47;;;1.63;;
10277;SDS011;5184;51.376;7.148;2024-02-15T10:32:59;3.80;;;1.80;;
10277;SDS011;5184;51.376;7.148;2024-02-15T10:35:26;2.57;;;1.57;;
10277;SDS011;5184;51.376;7.148;2024-02-15T10:37:52;3.93;;;1.63;;
10277;SDS011;5184;51.376;7.148;2024-02-15T10:40:19;3.17;;;1.43;;
10277;SDS011;5184;51.376;7.148;2024-02-15T10:42:47;3.23;;;1.80;;
10277;SDS011;5184;51.376;7.148;2024-02-15T10:45:13;4.47;;;2.03;;
10277;SDS011;5184;51.376;7.148;2024-02-15T10:47:39;3.97;;;2.10;;
10277;SDS011;5184;51.376;7.148;2024-02-15T10:50:07;3.70;;;1.70;;
10277;SDS011;5184;51.376;7.148;2024-02-15T10:52:33;3.63;;;1.80;;
10277;SDS011;5184;51.376;7.148;2024-02-15T10:55:03;4.77;;;1.60;;
10277;SDS011;5184;51.376;7.148;2024-02-15T10:57:31;3.30;;;1.80;;
10277;SDS011;5184;51.376;7.148;2024-02-15T10:59:57;2.60;;;1.80;;
10277;SDS011;5184;51.376;7.148;2024-02-15T11:02:28;4.50;;;1.60;;
10277;SDS011;5184;51.376;7.148;2024-02-15T11:04:54;3.20;;;1.70;;
10277;SDS011;5184;51.376;7.148;2024-02-15T11:07:22;2.27;;;1.93;;
10277;SDS011;5184;51.376;7.148;2024-02-15T11:09:48;3.97;;;1.80;;
10277;SDS011;5184;51.376;7.148;2024-02-15T11:12:14;3.17;;;1.67;;
10277;SDS011;5184;51.376;7.148;2024-02-15T11:14:44;4.90;;;1.60;;
10277;SDS011;5184;51.376;7.148;2024-02-15T11:17:08;3.73;;;1.60;;
10277;SDS011;5184;51.376;7.148;2024-02-15T11:19:43;3.43;;;1.57;;
10277;SDS011;5184;51.376;7.148;2024-02-15T11:22:11;3.90;;;1.53;;
10277;SDS011;5184;51.376;7.148;2024-02-15T11:24:45;3.33;;;1.70;;
10277;SDS011;5184;51.376;7.148;2024-02-15T11:27:06;4.67;;;1.73;;
10277;SDS011;5184;51.376;7.148;2024-02-15T11:32:30;2.90;;;1.40;;
10277;SDS011;5184;51.376;7.148;2024-02-15T11:34:41;1.97;;;1.30;;
10277;SDS011;5184;51.376;7.148;2024-02-15T11:37:08;6.20;;;1.80;;
10277;SDS011;5184;51.376;7.148;2024-02-15T11:39:39;3.03;;;1.40;;
10277;SDS011;5184;51.376;7.148;2024-02-15T11:47:28;2.43;;;1.60;;
10277;SDS011;5184;51.376;7.148;2024-02-15T11:49:54;2.33;;;1.80;;
10277;SDS011;5184;51.376;7.148;2024-02-15T11:52:21;2.80;;;1.70;;
10277;SDS011;5184;51.376;7.148;2024-02-15T11:54:48;3.93;;;1.70;;
10277;SDS011;5184;51.376;7.148;2024-02-15T11:57:15;3.53;;;1.73;;
10277;SDS011;5184;51.376;7.148;2024-02-15T11:59:42;2.97;;;1.50;;
10277;SDS011;5184;51.376;7.148;2024-02-15T12:02:24;2.97;;;1.50;;
10277;SDS011;5184;51.376;7.148;2024-02-15T12:04:57;1.97;;;1.50;;
10277;SDS011;5184;51.376;7.148;2024-02-15T12:07:29;2.73;;;1.27;;
10277;SDS011;5184;51.376;7.148;2024-02-15T12:10:02;4.20;;;2.00;;
10277;SDS011;5184;51.376;7.148;2024-02-15T12:12:34;2.20;;;1.47;;
10277;SDS011;5184;51.376;7.148;2024-02-15T12:15:07;4.17;;;1.70;;
10277;SDS011;5184;51.376;7.148;2024-02-15T12:17:39;4.17;;;1.40;;
10277;SDS011;5184;51.376;7.148;2024-02-15T12:20:12;2.83;;;1.43;;
10277;SDS011;5184;51.376;7.148;2024-02-15T12:22:40;3.20;;;1.37;;
10277;SDS011;5184;51.376;7.148;2024-02-15T12:25:06;4.77;;;1.63;;
10277;SDS011;5184;51.376;7.148;2024-02-15T12:27:39;5.03;;;1.50;;
10277;SDS011;5184;51.376;7.148;2024-02-15T12:30:05;3.13;;;1.47;;
10277;SDS011;5184;51.376;7.148;2024-02-15T12:32:33;3.73;;;1.47;;
10277;SDS011;5184;51.376;7.148;2024-02-15T12:37:35;4.27;;;1.53;;
10277;SDS011;5184;51.376;7.148;2024-02-15T12:42:38;2.13;;;1.33;;
10277;SDS011;5184;51.376;7.148;2024-02-15T12:45:05;2.53;;;1.50;;
10277;SDS011;5184;51.376;7.148;2024-02-15T12:47:32;2.40;;;1.20;;
10277;SDS011;5184;51.376;7.148;2024-02-15T12:50:08;3.00;;;1.50;;
10277;SDS011;5184;51.376;7.148;2024-02-15T12:57:33;3.73;;;1.53;;
10277;SDS011;5184;51.376;7.148;2024-02-15T13:00:00;2.00;;;1.57;;
10277;SDS011;5184;51.376;7.148;2024-02-15T13:02:28;2.30;;;1.30;;
10277;SDS011;5184;51.376;7.148;2024-02-15T13:04:58;2.00;;;1.40;;
10277;SDS011;5184;51.376;7.148;2024-02-15T13:07:25;3.07;;;1.60;;
10277;SDS011;5184;51.376;7.148;2024-02-15T13:09:53;3.17;;;1.47;;
10277;SDS011;5184;51.376;7.148;2024-02-15T13:12:19;2.90;;;1.40;;
10277;SDS011;5184;51.376;7.148;2024-02-15T13:14:46;3.13;;;1.50;;
10277;SDS011;5184;51.376;7.148;2024-02-15T13:17:12;4.10;;;1.50;;
10277;SDS011;5184;51.376;7.148;2024-02-15T13:19:44;2.03;;;1.47;;
10277;SDS011;5184;51.376;7.148;2024-02-15T13:22:06;2.53;;;1.33;;
10277;SDS011;5184;51.376;7.148;2024-02-15T13:24:33;4.80;;;1.60;;
10277;SDS011;5184;51.376;7.148;2024-02-15T13:27:01;3.23;;;1.20;;
10277;SDS011;5184;51.376;7.148;2024-02-15T13:29:27;3.73;;;1.40;;
10277;SDS011;5184;51.376;7.148;2024-02-15T13:31:54;2.23;;;1.43;;
10277;SDS011;5184;51.376;7.148;2024-02-15T13:34:20;2.73;;;1.53;;
10277;SDS011;5184;51.376;7.148;2024-02-15T13:36:47;3.60;;;1.33;;
10277;SDS011;5184;51.376;7.148;2024-02-15T13:39:13;3.67;;;1.40;;
10277;SDS011;5184;51.376;7.148;2024-02-15T13:41:41;1.57;;;1.23;;
10277;SDS011;5184;51.376;7.148;2024-02-15T13:44:08;2.03;;;1.47;;
10277;SDS011;5184;51.376;7.148;2024-02-15T13:46:35;2.20;;;1.37;;
10277;SDS011;5184;51.376;7.148;2024-02-15T13:49:02;2.17;;;1.20;;
10277;SDS011;5184;51.376;7.148;2024-02-15T13:51:29;4.40;;;1.60;;
10277;SDS011;5184;51.376;7.148;2024-02-15T13:53:55;1.73;;;1.37;;
10277;SDS011;5184;51.376;7.148;2024-02-15T13:56:22;2.70;;;1.27;;
10277;SDS011;5184;51.376;7.148;2024-02-15T13:58:48;3.00;;;1.37;;
10277;SDS011;5184;51.376;7.148;2024-02-15T14:01:16;3.67;;;1.63;;
10277;SDS011;5184;51.376;7.148;2024-02-15T14:03:43;2.63;;;1.50;;
10277;SDS011;5184;51.376;7.148;2024-02-15T14:06:10;5.07;;;1.57;;
10277;SDS011;5184;51.376;7.148;2024-02-15T14:08:36;2.87;;;1.33;;
10277;SDS011;5184;51.376;7.148;2024-02-15T14:11:03;2.60;;;1.20;;
10277;SDS011;5184;51.376;7.148;2024-02-15T14:13:30;2.83;;;1.30;;
10277;SDS011;5184;51.376;7.148;2024-02-15T14:15:56;2.57;;;1.47;;
10277;SDS011;5184;51.376;7.148;2024-02-15T14:18:23;2.93;;;1.67;;
10277;SDS011;5184;51.376;7.148;2024-02-15T14:20:49;3.53;;;1.60;;
10277;SDS011;5184;51.376;7.148;2024-02-15T14:23:16;3.20;;;1.40;;
10277;SDS011;5184;51.376;7.148;2024-02-15T14:25:43;2.27;;;1.20;;
10277;SDS011;5184;51.376;7.148;2024-02-15T14:28:09;2.07;;;1.50;;
10277;SDS011;5184;51.376;7.148;2024-02-15T14:30:36;1.90;;;1.40;;
10277;SDS011;5184;51.376;7.148;2024-02-15T14:33:09;2.37;;;1.47;;
10277;SDS011;5184;51.376;7.148;2024-02-15T14:35:38;4.97;;;1.50;;
10277;SDS011;5184;51.376;7.148;2024-02-15T14:38:05;3.43;;;1.13;;
10277;SDS011;5184;51.376;7.148;2024-02-15T14:40:33;2.07;;;1.30;;
10277;SDS011;5184;51.376;7.148;2024-02-15T14:42:59;2.00;;;1.17;;
10277;SDS011;5184;51.376;7.148;2024-02-15T14:45:25;3.07;;;1.53;;
10277;SDS011;5184;51.376;7.148;2024-02-15T14:47:53;1.80;;;1.40;;
10277;SDS011;5184;51.376;7.148;2024-02-15T14:50:19;2.30;;;1.40;;
10277;SDS011;5184;51.376;7.148;2024-02-15T14:52:46;2.53;;;1.63;;
10277;SDS011;5184;51.376;7.148;2024-02-15T14:55:12;3.23;;;1.60;;
10277;SDS011;5184;51.376;7.148;2024-02-15T14:57:39;2.83;;;1.70;;
10277;SDS011;5184;51.376;7.148;2024-02-15T15:00:06;4.07;;;1.50;;
10277;SDS011;5184;51.376;7.148;2024-02-15T15:02:37;4.90;;;1.90;;
10277;SDS011;5184;51.376;7.148;2024-02-15T15:05:03;2.37;;;1.20;;
10277;SDS011;5184;51.376;7.148;2024-02-15T15:07:37;2.83;;;1.50;;
10277;SDS011;5184;51.376;7.148;2024-02-15T15:10:10;3.27;;;1.53;;
10277;SDS011;5184;51.376;7.148;2024-02-15T15:12:41;3.13;;;1.30;;
10277;SDS011;5184;51.376;7.148;2024-02-15T15:15:08;3.07;;;1.70;;